createdAt,value
2023-04-23T00:01:30.125Z,96995.81
2023-04-23T00:03:56.936Z,96998.72
2023-04-23T00:06:23.574Z,96993.97
2023-04-23T00:08:50.193Z,96994.75
2023-04-23T00:11:17.095Z,96988.16
2023-04-23T00:13:43.916Z,96997.09
2023-04-23T00:16:10.517Z,96986.66
2023-04-23T00:18:37.111Z,96980.69
2023-04-23T00:21:03.758Z,96982.91
2023-04-23T00:23:30.486Z,96982.91
2023-04-23T00:25:57.279Z,96985.78
2023-04-23T00:28:24.083Z,96981.56
2023-04-23T00:30:50.823Z,96979.97
2023-04-23T00:33:17.479Z,96973.75
2023-04-23T00:35:44.060Z,96974.91
2023-04-23T00:38:10.626Z,96978.69
2023-04-23T00:40:37.212Z,96976.44
2023-04-23T00:43:06.298Z,96970.34
2023-04-23T00:45:32.929Z,96968.66
2023-04-23T00:47:59.706Z,96976.91
2023-04-23T00:50:26.432Z,96975.63
2023-04-23T00:52:53.050Z,96979.72
2023-04-23T00:55:19.774Z,96979.53
2023-04-23T00:57:46.691Z,96979.97
2023-04-23T01:00:13.244Z,96979.53
2023-04-23T01:02:39.989Z,96979.22
2023-04-23T01:05:06.686Z,96988.16
2023-04-23T01:07:33.427Z,96979.66
2023-04-23T01:10:00.009Z,96979.81
2023-04-23T01:12:26.597Z,96984.94
2023-04-23T01:14:53.187Z,96983.97
2023-04-23T01:17:19.867Z,96975.56
2023-04-23T01:19:46.527Z,96979.34
2023-04-23T01:22:13.189Z,96979.44
2023-04-23T01:24:39.996Z,96978.50
2023-04-23T01:27:06.871Z,96971.38
2023-04-23T01:29:33.566Z,96978.13
2023-04-23T01:32:00.260Z,96973.69
2023-04-23T01:34:26.974Z,96977.41
2023-04-23T01:36:53.568Z,96982.66
2023-04-23T01:39:20.330Z,96978.50
2023-04-23T01:41:46.908Z,96969.22
2023-04-23T01:44:13.686Z,96964.94
2023-04-23T01:46:40.417Z,96969.53
2023-04-23T01:49:07.053Z,96971.53
2023-04-23T01:51:33.667Z,96974.47
2023-04-23T01:54:00.418Z,96968.75
2023-04-23T01:56:27.064Z,96968.56
2023-04-23T01:58:53.634Z,96969.94
2023-04-23T02:01:20.244Z,96964.31
2023-04-23T02:03:47.119Z,96962.09
2023-04-23T02:06:13.874Z,96961.81
2023-04-23T02:08:40.455Z,96964.88
2023-04-23T02:11:07.091Z,96957.03
2023-04-23T02:13:33.768Z,96959.06
2023-04-23T02:16:00.547Z,96952.53
2023-04-23T02:18:27.144Z,96962.06
2023-04-23T02:20:53.822Z,96967.72
2023-04-23T02:23:20.490Z,96958.38
2023-04-23T02:25:47.076Z,96960.63
2023-04-23T02:28:13.675Z,96962.66
2023-04-23T02:30:40.312Z,96965.56
2023-04-23T02:33:07.122Z,96964.38
2023-04-23T02:35:33.736Z,96959.88
2023-04-23T02:38:00.308Z,96961.97
2023-04-23T02:40:27.146Z,96958.50
2023-04-23T02:42:53.759Z,96964.44
2023-04-23T02:45:20.397Z,96964.19
2023-04-23T02:47:47.101Z,96966.41
2023-04-23T02:50:13.749Z,96961.34
2023-04-23T02:52:40.435Z,96971.31
2023-04-23T02:55:07.024Z,96974.56
2023-04-23T02:57:33.788Z,96967.66
2023-04-23T03:02:44.482Z,96969.28
2023-04-23T03:05:11.161Z,96963.19
2023-04-23T03:07:37.780Z,96960.97
2023-04-23T03:10:04.394Z,96958.47
2023-04-23T03:12:30.961Z,96965.19
2023-04-23T03:14:57.873Z,96958.34
2023-04-23T03:17:24.498Z,96957.47
2023-04-23T03:19:51.115Z,96957.69
2023-04-23T03:22:17.737Z,96955.06
2023-04-23T03:24:44.418Z,96958.91
2023-04-23T03:27:11.107Z,96956.66
2023-04-23T03:29:37.682Z,96962.81
2023-04-23T03:32:04.285Z,96956.38
2023-04-23T03:34:30.867Z,96956.38
2023-04-23T03:36:57.968Z,96957.38
2023-04-23T03:39:24.603Z,96958.16
2023-04-23T03:41:51.173Z,96954.31
2023-04-23T03:44:17.801Z,96948.03
2023-04-23T03:46:44.499Z,96953.28
2023-04-23T03:49:11.116Z,96945.81
2023-04-23T03:51:37.772Z,96951.47
2023-04-23T03:54:04.412Z,96949.03
2023-04-23T03:56:31.152Z,96951.28
2023-04-23T03:58:57.762Z,96942.78
2023-04-23T04:01:24.502Z,96942.38
2023-04-23T04:03:51.351Z,96942.38
2023-04-23T04:06:18.171Z,96947.47
2023-04-23T04:08:44.850Z,96946.19
2023-04-23T04:11:11.564Z,96942.38
2023-04-23T04:13:38.161Z,96945.19
2023-04-23T04:16:04.814Z,96945.00
2023-04-23T04:18:31.591Z,96944.00
2023-04-23T04:20:58.202Z,96942.75
2023-04-23T04:23:24.770Z,96950.47
2023-04-23T04:25:51.359Z,96952.91
2023-04-23T04:28:17.946Z,96947.19
2023-04-23T04:30:44.507Z,96942.34
2023-04-23T04:33:11.104Z,96945.38
2023-04-23T04:35:39.845Z,96944.13
2023-04-23T04:38:06.437Z,96945.53
2023-04-23T04:40:32.989Z,96948.75
2023-04-23T04:42:59.638Z,96946.13
2023-04-23T04:45:26.210Z,96940.84
2023-04-23T04:47:52.907Z,96947.56
2023-04-23T04:50:19.561Z,96949.28
2023-04-23T04:52:46.170Z,96946.91
2023-04-23T04:55:12.918Z,96950.31
2023-04-23T04:57:39.478Z,96947.88
2023-04-23T05:00:06.114Z,96950.47
2023-04-23T05:02:32.804Z,96949.59
2023-04-23T05:04:59.490Z,96954.66
2023-04-23T05:07:26.197Z,96957.03
2023-04-23T05:09:52.801Z,96954.94
2023-04-23T05:12:19.426Z,96956.13
2023-04-23T05:14:46.006Z,96955.91
2023-04-23T05:17:12.590Z,96953.72
2023-04-23T05:19:39.473Z,96962.88
2023-04-23T05:22:07.157Z,96947.03
2023-04-23T05:24:33.728Z,96956.00
2023-04-23T05:27:00.340Z,96949.78
2023-04-23T05:29:27.049Z,96951.44
2023-04-23T05:31:53.733Z,96952.03
2023-04-23T05:34:20.349Z,96944.84
2023-04-23T05:36:46.966Z,96947.66
2023-04-23T05:39:13.555Z,96937.19
2023-04-23T05:41:40.197Z,96940.97
2023-04-23T05:44:06.782Z,96937.63
2023-04-23T05:46:33.444Z,96939.09
2023-04-23T05:49:00.170Z,96945.75
2023-04-23T05:51:26.817Z,96941.59
2023-04-23T05:53:53.530Z,96941.50
2023-04-23T05:56:20.142Z,96941.63
2023-04-23T05:58:46.866Z,96940.72
2023-04-23T06:01:13.440Z,96947.66
2023-04-23T06:03:40.248Z,96949.66
2023-04-23T06:06:06.984Z,96947.03
2023-04-23T06:08:33.555Z,96945.94
2023-04-23T06:11:00.189Z,96951.19
2023-04-23T06:13:26.814Z,96954.88
2023-04-23T06:15:53.694Z,96944.56
2023-04-23T06:18:20.318Z,96940.75
2023-04-23T06:20:46.876Z,96950.69
2023-04-23T06:23:15.612Z,96946.94
2023-04-23T06:25:42.197Z,96945.13
2023-04-23T06:28:08.837Z,96938.88
2023-04-23T06:30:35.430Z,96948.44
2023-04-23T06:33:02.065Z,96952.31
2023-04-23T06:35:28.739Z,96950.59
2023-04-23T06:37:55.367Z,96953.25
2023-04-23T06:40:21.940Z,96945.31
2023-04-23T06:42:48.677Z,96953.19
2023-04-23T06:45:15.304Z,96950.28
2023-04-23T06:47:42.002Z,96952.00
2023-04-23T06:50:08.801Z,96942.63
2023-04-23T06:52:35.401Z,96941.75
2023-04-23T06:55:01.987Z,96940.34
2023-04-23T06:57:28.563Z,96941.50
2023-04-23T06:59:55.130Z,96940.34
2023-04-23T07:02:21.765Z,96932.66
2023-04-23T07:04:48.417Z,96930.78
2023-04-23T07:07:15.047Z,96932.97
2023-04-23T07:09:41.602Z,96932.03
2023-04-23T07:12:08.183Z,96934.28
2023-04-23T07:14:34.882Z,96915.47
2023-04-23T07:17:01.668Z,96921.38
2023-04-23T07:19:29.244Z,96911.84
2023-04-23T07:21:55.800Z,96912.66
2023-04-23T07:24:22.395Z,96907.00
2023-04-23T07:26:48.988Z,96916.88
2023-04-23T07:29:15.766Z,96913.59
2023-04-23T07:31:42.365Z,96917.63
2023-04-23T07:34:09.000Z,96912.53
2023-04-23T07:36:35.571Z,96908.50
2023-04-23T07:39:02.166Z,96909.59
2023-04-23T07:41:28.744Z,96904.50
2023-04-23T07:43:55.300Z,96910.38
2023-04-23T07:46:22.119Z,96905.56
2023-04-23T07:48:48.875Z,96903.44
2023-04-23T07:51:15.464Z,96898.84
2023-04-23T07:53:42.079Z,96903.69
2023-04-23T07:56:08.661Z,96900.78
2023-04-23T07:58:35.358Z,96897.84
2023-04-23T08:01:01.978Z,96900.19
2023-04-23T08:03:28.938Z,96899.72
2023-04-23T08:05:55.733Z,96900.22
2023-04-23T08:08:22.346Z,96899.88
2023-04-23T08:10:48.937Z,96891.25
2023-04-23T08:13:15.542Z,96898.47
2023-04-23T08:15:42.220Z,96898.19
2023-04-23T08:18:08.886Z,96898.06
2023-04-23T08:20:35.622Z,96890.81
2023-04-23T08:23:02.252Z,96890.91
2023-04-23T08:25:28.825Z,96897.03
2023-04-23T08:27:57.977Z,96893.28
2023-04-23T08:30:24.567Z,96892.06
2023-04-23T08:32:51.465Z,96886.38
2023-04-23T08:35:18.135Z,96885.81
2023-04-23T08:37:44.732Z,96880.75
2023-04-23T08:40:11.323Z,96889.00
2023-04-23T08:42:37.913Z,96882.34
2023-04-23T08:45:04.516Z,96885.56
2023-04-23T08:47:31.165Z,96888.38
2023-04-23T08:49:57.746Z,96883.63
2023-04-23T08:52:24.355Z,96881.19
2023-04-23T08:54:50.927Z,96885.28
2023-04-23T08:57:17.558Z,96879.94
2023-04-23T08:59:44.383Z,96887.91
2023-04-23T09:02:11.214Z,96873.91
2023-04-23T09:04:37.866Z,96883.66
2023-04-23T09:07:04.462Z,96872.66
2023-04-23T09:09:31.046Z,96862.19
2023-04-23T09:11:57.647Z,96876.16
2023-04-23T09:14:24.333Z,96871.72
2023-04-23T09:16:51.014Z,96873.50
2023-04-23T09:19:17.638Z,96875.63
2023-04-23T09:21:44.219Z,96868.31
2023-04-23T09:24:10.951Z,96866.00
2023-04-23T09:26:37.561Z,96866.41
2023-04-23T09:29:04.190Z,96868.03
2023-04-23T09:31:30.855Z,96866.28
2023-04-23T09:33:57.520Z,96867.25
2023-04-23T09:36:24.119Z,96856.63
2023-04-23T09:38:50.733Z,96855.16
2023-04-23T09:41:17.346Z,96852.09
2023-04-23T09:43:43.917Z,96855.72
2023-04-23T09:46:10.548Z,96844.38
2023-04-23T09:48:37.263Z,96850.28
2023-04-23T09:51:03.862Z,96847.06
2023-04-23T09:53:30.424Z,96840.47
2023-04-23T09:55:57.257Z,96838.66
2023-04-23T09:58:23.832Z,96837.69
2023-04-23T10:00:50.769Z,96832.56
2023-04-23T10:03:17.464Z,96829.03
2023-04-23T10:08:14.229Z,96832.53
2023-04-23T10:10:56.838Z,96818.94
2023-04-23T10:13:27.440Z,96821.13
2023-04-23T10:15:54.178Z,96819.44
2023-04-23T10:18:20.814Z,96810.72
2023-04-23T10:20:49.587Z,96808.34
2023-04-23T10:23:16.224Z,96809.38
2023-04-23T10:25:42.798Z,96802.59
2023-04-23T10:28:09.724Z,96804.75
2023-04-23T10:30:36.336Z,96799.59
2023-04-23T10:33:03.051Z,96796.28
2023-04-23T10:35:29.706Z,96784.50
2023-04-23T10:37:56.294Z,96795.88
2023-04-23T10:40:22.904Z,96785.03
2023-04-23T10:42:49.481Z,96791.50
2023-04-23T10:45:23.373Z,96783.13
2023-04-23T10:47:54.132Z,96789.69
2023-04-23T10:50:20.816Z,96779.47
2023-04-23T10:52:47.399Z,96775.66
2023-04-23T10:55:14.019Z,96771.94
2023-04-23T10:57:40.604Z,96780.75
2023-04-23T11:00:07.206Z,96772.50
2023-04-23T11:02:33.916Z,96779.09
2023-04-23T11:05:00.786Z,96773.22
2023-04-23T11:07:27.489Z,96770.16
2023-04-23T11:09:54.169Z,96773.16
2023-04-23T11:12:20.815Z,96771.34
2023-04-23T11:14:47.378Z,96772.78
2023-04-23T11:17:13.974Z,96772.94
2023-04-23T11:19:40.817Z,96766.28
2023-04-23T11:22:07.551Z,96763.63
2023-04-23T11:24:34.146Z,96772.31
2023-04-23T11:27:00.764Z,96770.00
2023-04-23T11:29:27.686Z,96767.91
2023-04-23T11:32:02.617Z,96761.72
2023-04-23T11:34:30.408Z,96769.06
2023-04-23T11:36:57.348Z,96754.75
2023-04-23T11:39:23.917Z,96755.66
2023-04-23T11:41:50.499Z,96755.66
2023-04-23T11:44:17.084Z,96742.59
2023-04-23T11:46:43.661Z,96742.31
2023-04-23T11:49:10.286Z,96741.09
2023-04-23T11:51:37.211Z,96743.13
2023-04-23T11:54:03.778Z,96747.53
2023-04-23T11:56:30.683Z,96737.91
2023-04-23T11:58:57.234Z,96732.94
2023-04-23T12:01:23.794Z,96728.31
2023-04-23T12:03:50.542Z,96735.47
2023-04-23T12:06:17.196Z,96736.88
2023-04-23T12:08:43.779Z,96739.03
2023-04-23T12:11:10.630Z,96725.50
2023-04-23T12:13:37.409Z,96726.84
2023-04-23T12:16:04.064Z,96727.56
2023-04-23T12:18:30.664Z,96728.19
2023-04-23T12:20:57.266Z,96726.47
2023-04-23T12:23:23.831Z,96719.59
2023-04-23T12:25:50.425Z,96711.84
2023-04-23T12:28:17.039Z,96707.78
2023-04-23T12:30:43.657Z,96707.75
2023-04-23T12:33:10.247Z,96706.97
2023-04-23T12:35:36.831Z,96702.78
2023-04-23T12:38:03.459Z,96705.63
2023-04-23T12:40:30.112Z,96703.69
2023-04-23T12:42:56.735Z,96709.03
2023-04-23T12:45:23.380Z,96701.16
2023-04-23T12:47:49.986Z,96692.38
2023-04-23T12:50:16.640Z,96690.38
2023-04-23T12:52:43.223Z,96683.66
2023-04-23T12:55:10.136Z,96681.63
2023-04-23T12:57:36.709Z,96676.56
2023-04-23T13:00:03.284Z,96680.22
2023-04-23T13:02:30.114Z,96673.16
2023-04-23T13:04:56.839Z,96666.19
2023-04-23T13:07:23.468Z,96668.41
2023-04-23T13:09:50.124Z,96656.41
2023-04-23T13:12:16.727Z,96650.75
2023-04-23T13:14:43.294Z,96647.75
2023-04-23T13:17:09.887Z,96636.44
2023-04-23T13:19:36.445Z,96639.25
2023-04-23T13:22:03.083Z,96630.91
2023-04-23T13:24:29.663Z,96629.31
2023-04-23T13:26:56.273Z,96635.41
2023-04-23T13:29:22.919Z,96625.56
2023-04-23T13:31:49.615Z,96625.84
2023-04-23T13:34:16.199Z,96611.47
2023-04-23T13:36:42.910Z,96604.53
2023-04-23T13:39:09.497Z,96602.97
2023-04-23T13:41:36.087Z,96608.47
2023-04-23T13:44:02.671Z,96606.47
2023-04-23T13:46:29.270Z,96603.47
2023-04-23T13:48:55.907Z,96598.91
2023-04-23T13:51:34.665Z,96599.06
2023-04-23T13:54:02.247Z,96596.03
2023-04-23T13:56:28.870Z,96591.78
2023-04-23T13:58:56.553Z,96589.09
2023-04-23T14:01:31.741Z,96579.50
2023-04-23T14:03:58.392Z,96589.19
2023-04-23T14:06:25.170Z,96584.94
2023-04-23T14:08:51.742Z,96581.13
2023-04-23T14:11:18.342Z,96580.09
2023-04-23T14:13:44.933Z,96573.59
2023-04-23T14:16:11.564Z,96575.25
2023-04-23T14:18:38.136Z,96570.28
2023-04-23T14:21:04.695Z,96569.88
2023-04-23T14:23:31.312Z,96565.66
2023-04-23T14:25:57.898Z,96564.03
2023-04-23T14:28:24.506Z,96570.41
2023-04-23T14:30:51.092Z,96565.94
2023-04-23T14:33:17.732Z,96557.81
2023-04-23T14:35:44.457Z,96550.47
2023-04-23T14:38:11.220Z,96542.94
2023-04-23T14:40:37.849Z,96552.81
2023-04-23T14:43:15.139Z,96546.69
2023-04-23T14:45:42.310Z,96542.81
2023-04-23T14:48:08.893Z,96530.50
2023-04-23T14:50:35.497Z,96532.13
2023-04-23T14:53:02.091Z,96528.53
2023-04-23T14:55:28.697Z,96531.16
2023-04-23T14:57:55.634Z,96527.84
2023-04-23T15:00:22.243Z,96520.22
2023-04-23T15:02:48.936Z,96521.56
2023-04-23T15:05:15.586Z,96519.00
2023-04-23T15:07:42.181Z,96521.59
2023-04-23T15:10:08.775Z,96518.50
2023-04-23T15:12:35.605Z,96515.00
2023-04-23T15:15:03.266Z,96517.75
2023-04-23T15:17:29.878Z,96515.09
2023-04-23T15:19:56.496Z,96520.41
2023-04-23T15:22:23.138Z,96523.53
2023-04-23T15:24:49.708Z,96521.22
2023-04-23T15:27:16.337Z,96519.16
2023-04-23T15:29:43.080Z,96514.91
2023-04-23T15:32:10.664Z,96511.53
2023-04-23T15:34:37.384Z,96508.22
2023-04-23T15:37:03.998Z,96513.34
2023-04-23T15:39:30.613Z,96520.94
2023-04-23T15:41:57.246Z,96516.88
2023-04-23T15:44:23.842Z,96518.09
2023-04-23T15:46:50.399Z,96515.34
2023-04-23T15:49:17.000Z,96509.53
2023-04-23T15:51:43.648Z,96504.34
2023-04-23T15:54:10.215Z,96501.44
2023-04-23T15:56:36.855Z,96498.69
2023-04-23T15:59:03.480Z,96500.41
2023-04-23T16:01:30.181Z,96490.59
2023-04-23T16:04:08.638Z,96490.50
2023-04-23T16:06:36.694Z,96497.78
2023-04-23T16:09:03.287Z,96499.28
2023-04-23T16:11:29.891Z,96503.59
2023-04-23T16:13:56.462Z,96506.69
2023-04-23T16:16:23.077Z,96507.84
2023-04-23T16:18:49.672Z,96492.06
2023-04-23T16:21:16.237Z,96492.47
2023-04-23T16:23:42.828Z,96494.00
2023-04-23T16:26:09.386Z,96499.69
2023-04-23T16:28:35.976Z,96492.41
2023-04-23T16:31:03.047Z,96490.19
2023-04-23T16:33:29.698Z,96475.72
2023-04-23T16:35:56.406Z,96476.84
2023-04-23T16:38:22.970Z,96489.84
2023-04-23T16:40:49.556Z,96488.72
2023-04-23T16:43:16.341Z,96480.34
2023-04-23T16:45:43.799Z,96476.59
2023-04-23T16:48:10.411Z,96498.03
2023-04-23T16:50:37.047Z,96519.00
2023-04-23T16:53:04.907Z,96529.31
2023-04-23T16:55:31.603Z,96535.03
2023-04-23T16:57:58.244Z,96573.19
2023-04-23T17:00:24.937Z,96572.31
2023-04-23T17:02:51.615Z,96545.69
2023-04-23T17:05:18.381Z,96565.84
2023-04-23T17:07:45.103Z,96593.91
2023-04-23T17:10:11.775Z,96605.78
2023-04-23T17:12:38.421Z,96627.22
2023-04-23T17:15:05.365Z,96632.72
2023-04-23T17:17:32.056Z,96621.66
2023-04-23T17:19:58.823Z,96601.03
2023-04-23T17:22:25.432Z,96583.78
2023-04-23T17:24:52.061Z,96580.00
2023-04-23T17:27:18.786Z,96588.47
2023-04-23T17:29:45.387Z,96592.28
2023-04-23T17:32:11.988Z,96589.25
2023-04-23T17:34:38.662Z,96588.22
2023-04-23T17:37:05.298Z,96587.22
2023-04-23T17:39:31.917Z,96572.41
2023-04-23T17:41:58.560Z,96571.13
2023-04-23T17:44:25.235Z,96587.56
2023-04-23T17:46:52.011Z,96582.94
2023-04-23T17:49:18.603Z,96571.53
2023-04-23T17:51:45.201Z,96575.63
2023-04-23T17:54:11.780Z,96575.13
2023-04-23T17:56:38.448Z,96570.34
2023-04-23T17:59:05.050Z,96562.84
2023-04-23T18:01:32.584Z,96561.72
2023-04-23T18:03:59.377Z,96571.53
2023-04-23T18:06:26.094Z,96573.06
2023-04-23T18:08:52.744Z,96571.78
2023-04-23T18:11:19.644Z,96568.94
2023-04-23T18:13:46.364Z,96574.00
2023-04-23T18:16:12.983Z,96575.13
2023-04-23T18:18:39.930Z,96573.31
2023-04-23T18:21:06.500Z,96573.78
2023-04-23T18:23:33.270Z,96580.38
2023-04-23T18:25:59.853Z,96579.91
2023-04-23T18:28:26.506Z,96583.78
2023-04-23T18:30:53.154Z,96595.53
2023-04-23T18:33:19.859Z,96594.00
2023-04-23T18:35:46.527Z,96599.84
2023-04-23T18:38:13.123Z,96603.50
2023-04-23T18:40:39.711Z,96607.25
2023-04-23T18:43:06.283Z,96608.25
2023-04-23T18:45:32.911Z,96607.53
2023-04-23T18:47:59.526Z,96614.38
2023-04-23T18:50:26.150Z,96606.13
2023-04-23T18:52:52.726Z,96607.69
2023-04-23T18:55:19.718Z,96606.84
2023-04-23T18:57:46.277Z,96603.25
2023-04-23T19:00:12.896Z,96603.63
2023-04-23T19:02:39.513Z,96607.94
2023-04-23T19:05:08.378Z,96604.91
2023-04-23T19:07:35.077Z,96606.41
2023-04-23T19:10:01.704Z,96590.22
2023-04-23T19:12:28.457Z,96598.41
2023-04-23T19:14:55.052Z,96589.09
2023-04-23T19:17:21.638Z,96594.50
2023-04-23T19:19:48.310Z,96597.16
2023-04-23T19:22:14.869Z,96587.25
2023-04-23T19:24:41.682Z,96586.31
2023-04-23T19:27:08.282Z,96590.50
2023-04-23T19:29:34.917Z,96584.44
2023-04-23T19:32:01.510Z,96586.72
2023-04-23T19:34:28.204Z,96585.66
2023-04-23T19:36:57.963Z,96574.41
2023-04-23T19:39:24.528Z,96577.75
2023-04-23T19:41:51.126Z,96578.38
2023-04-23T19:44:17.724Z,96592.09
2023-04-23T19:46:44.384Z,96582.69
2023-04-23T19:49:10.999Z,96585.53
2023-04-23T19:51:37.586Z,96595.00
2023-04-23T19:54:04.208Z,96587.22
2023-04-23T19:56:30.791Z,96588.19
2023-04-23T19:58:57.372Z,96592.25
2023-04-23T20:01:24.104Z,96603.41
2023-04-23T20:03:51.067Z,96595.13
2023-04-23T20:06:17.931Z,96607.38
2023-04-23T20:08:44.634Z,96600.41
2023-04-23T20:11:11.259Z,96601.25
2023-04-23T20:13:37.839Z,96599.91
2023-04-23T20:16:04.665Z,96604.09
2023-04-23T20:18:31.258Z,96602.66
2023-04-23T20:20:57.857Z,96596.31
2023-04-23T20:23:24.442Z,96590.88
2023-04-23T20:25:51.017Z,96598.41
2023-04-23T20:28:17.644Z,96586.28
2023-04-23T20:30:44.483Z,96579.38
2023-04-23T20:33:11.060Z,96585.94
2023-04-23T20:35:37.775Z,96583.38
2023-04-23T20:38:04.424Z,96582.28
2023-04-23T20:40:31.011Z,96577.16
2023-04-23T20:42:57.609Z,96579.41
2023-04-23T20:45:24.185Z,96580.22
2023-04-23T20:47:50.810Z,96578.88
2023-04-23T20:50:17.437Z,96581.41
2023-04-23T20:52:44.045Z,96580.94
2023-04-23T20:55:11.677Z,96568.91
2023-04-23T20:57:38.274Z,96569.47
2023-04-23T21:00:04.883Z,96561.44
2023-04-23T21:02:31.827Z,96565.69
2023-04-23T21:04:58.445Z,96569.63
2023-04-23T21:07:25.056Z,96565.59
2023-04-23T21:09:51.634Z,96565.59
2023-04-23T21:12:18.203Z,96563.75
2023-04-23T21:14:44.856Z,96555.56
2023-04-23T21:17:11.436Z,96561.91
2023-04-23T21:19:38.013Z,96554.66
2023-04-23T21:22:04.650Z,96542.84
2023-04-23T21:24:31.223Z,96541.41
2023-04-23T21:26:57.847Z,96533.16
2023-04-23T21:29:24.415Z,96534.09
2023-04-23T21:31:51.124Z,96528.16
2023-04-23T21:34:17.769Z,96527.63
2023-04-23T21:36:44.362Z,96526.00
2023-04-23T21:39:12.820Z,96529.28
2023-04-23T21:41:39.676Z,96520.78
2023-04-23T21:44:06.299Z,96514.03
2023-04-23T21:46:32.909Z,96508.56
2023-04-23T21:48:59.530Z,96498.94
2023-04-23T21:51:26.095Z,96500.13
2023-04-23T21:53:52.667Z,96498.84
2023-04-23T21:56:19.425Z,96495.72
2023-04-23T21:58:46.014Z,96503.91
2023-04-23T22:01:12.661Z,96500.94
2023-04-23T22:03:39.605Z,96507.78
2023-04-23T22:06:06.319Z,96501.41
2023-04-23T22:08:32.977Z,96493.44
2023-04-23T22:10:59.666Z,96502.53
2023-04-23T22:13:26.299Z,96499.97
2023-04-23T22:15:52.857Z,96501.16
2023-04-23T22:18:19.580Z,96502.44
2023-04-23T22:20:46.239Z,96500.59
2023-04-23T22:23:12.890Z,96501.06
2023-04-23T22:25:39.469Z,96495.50
2023-04-23T22:28:06.623Z,96493.72
2023-04-23T22:30:33.221Z,96494.75
2023-04-23T22:32:59.877Z,96489.69
2023-04-23T22:35:26.577Z,96485.13
2023-04-23T22:37:53.279Z,96489.84
2023-04-23T22:40:19.878Z,96488.78
2023-04-23T22:42:46.464Z,96490.06
2023-04-23T22:45:13.039Z,96486.72
2023-04-23T22:47:39.631Z,96487.34
2023-04-23T22:50:06.651Z,96487.50
2023-04-23T22:52:33.271Z,96483.00
2023-04-23T22:55:02.172Z,96480.31
2023-04-23T22:57:29.078Z,96471.34
2023-04-23T22:59:55.686Z,96467.09
2023-04-23T23:02:22.433Z,96469.50
2023-04-23T23:04:49.112Z,96461.66
2023-04-23T23:07:15.725Z,96463.94
2023-04-23T23:09:42.474Z,96464.78
2023-04-23T23:12:09.287Z,96452.50
2023-04-23T23:14:35.868Z,96449.28
2023-04-23T23:17:02.611Z,96444.31
2023-04-23T23:19:29.511Z,96441.13
2023-04-23T23:21:57.111Z,96447.28
2023-04-23T23:24:23.782Z,96440.88
2023-04-23T23:26:50.435Z,96432.47
2023-04-23T23:29:17.037Z,96435.69
2023-04-23T23:31:43.754Z,96439.19
2023-04-23T23:34:10.425Z,96432.75
2023-04-23T23:36:37.073Z,96428.72
2023-04-23T23:39:03.667Z,96426.13
2023-04-23T23:41:30.248Z,96431.75
2023-04-23T23:43:56.936Z,96424.31
2023-04-23T23:46:23.579Z,96432.56
2023-04-23T23:48:50.189Z,96419.69
2023-04-23T23:51:16.829Z,96423.69
2023-04-23T23:53:43.406Z,96414.66
2023-04-23T23:56:10.021Z,96412.25
2023-04-23T23:58:36.599Z,96408.03
